createdAt,value
2019-03-09T00:02:25.913Z,99674.80
2019-03-09T00:04:56.266Z,99675.34
2019-03-09T00:07:26.944Z,99676.66
2019-03-09T00:09:57.450Z,99666.17
2019-03-09T00:12:27.989Z,99665.48
2019-03-09T00:14:58.369Z,99667.47
2019-03-09T00:17:28.850Z,99661.59
2019-03-09T00:19:59.582Z,99656.59
2019-03-09T00:22:30.178Z,99649.30
2019-03-09T00:25:02.116Z,99653.42
2019-03-09T00:27:34.196Z,99662.08
2019-03-09T00:30:08.440Z,99652.55
2019-03-09T00:32:42.345Z,99644.84
2019-03-09T00:35:14.359Z,99643.27
2019-03-09T00:37:46.063Z,99648.55
2019-03-09T00:40:16.433Z,99642.76
2019-03-09T00:42:46.835Z,99641.59
2019-03-09T00:45:17.208Z,99635.92
2019-03-09T00:47:47.593Z,99643.87
2019-03-09T00:50:17.970Z,99646.79
2019-03-09T00:52:48.524Z,99651.42
2019-03-09T00:55:19.089Z,99657.54
2019-03-09T00:57:49.742Z,99646.39
2019-03-09T01:00:20.305Z,99643.14
2019-03-09T01:02:51.276Z,99634.16
2019-03-09T01:05:22.210Z,99636.13
2019-03-09T01:07:52.658Z,99638.14
2019-03-09T01:10:22.994Z,99639.80
2019-03-09T01:12:53.482Z,99636.67
2019-03-09T01:15:23.937Z,99635.14
2019-03-09T01:17:56.351Z,99632.23
2019-03-09T01:20:35.962Z,99632.20
2019-03-09T01:23:06.474Z,99637.84
2019-03-09T01:25:41.749Z,99643.11
2019-03-09T01:28:12.151Z,99642.23
2019-03-09T01:30:45.056Z,99645.69
2019-03-09T01:33:15.772Z,99641.50
2019-03-09T01:35:46.191Z,99640.33
2019-03-09T01:38:16.642Z,99643.86
2019-03-09T01:40:47.149Z,99653.91
2019-03-09T01:43:17.635Z,99658.81
2019-03-09T01:45:48.111Z,99650.11
2019-03-09T01:48:18.655Z,99639.19
2019-03-09T01:50:49.105Z,99641.20
2019-03-09T01:53:19.766Z,99637.11
2019-03-09T01:55:50.197Z,99644.67
2019-03-09T01:58:20.748Z,99649.67
2019-03-09T02:00:51.324Z,99652.47
2019-03-09T02:03:21.785Z,99656.22
2019-03-09T02:05:52.245Z,99666.37
2019-03-09T02:08:22.683Z,99671.41
2019-03-09T02:10:53.161Z,99682.71
2019-03-09T02:13:23.635Z,99679.52
2019-03-09T02:15:54.339Z,99678.34
2019-03-09T02:18:25.257Z,99658.16
2019-03-09T02:20:55.732Z,99646.14
2019-03-09T02:26:16.534Z,99646.47
2019-03-09T02:28:47.114Z,99647.04
2019-03-09T02:31:19.667Z,99653.13
2019-03-09T02:33:50.144Z,99646.65
2019-03-09T02:36:20.637Z,99642.73
2019-03-09T02:38:53.605Z,99640.32
2019-03-09T02:41:24.064Z,99643.03
2019-03-09T02:43:56.058Z,99634.72
2019-03-09T02:46:26.460Z,99645.23
2019-03-09T02:48:57.540Z,99640.29
2019-03-09T02:51:28.865Z,99640.66
2019-03-09T02:53:59.291Z,99636.61
2019-03-09T02:56:29.738Z,99638.27
2019-03-09T02:59:00.253Z,99645.98
2019-03-09T03:01:32.175Z,99645.53
2019-03-09T03:04:05.403Z,99639.17
2019-03-09T03:06:35.728Z,99642.61
2019-03-09T03:09:06.874Z,99651.44
2019-03-09T03:11:41.411Z,99650.30
2019-03-09T03:17:02.797Z,99632.42
2019-03-09T03:19:33.254Z,99629.92
2019-03-09T03:22:03.759Z,99634.98
2019-03-09T03:24:34.288Z,99630.20
2019-03-09T03:27:04.743Z,99637.84
2019-03-09T03:29:35.171Z,99627.33
2019-03-09T03:32:05.685Z,99630.70
2019-03-09T03:34:36.233Z,99636.38
2019-03-09T03:37:06.681Z,99642.03
2019-03-09T03:39:37.183Z,99643.90
2019-03-09T03:42:07.608Z,99643.27
2019-03-09T03:45:02.680Z,99634.16
2019-03-09T03:47:33.157Z,99626.91
2019-03-09T03:50:04.179Z,99623.94
2019-03-09T03:52:36.959Z,99621.45
2019-03-09T03:55:09.382Z,99628.47
2019-03-09T03:57:43.238Z,99620.46
2019-03-09T04:00:15.001Z,99626.61
2019-03-09T04:02:45.419Z,99626.77
2019-03-09T04:05:15.955Z,99621.28
2019-03-09T04:07:47.781Z,99621.15
2019-03-09T04:10:22.651Z,99621.00
2019-03-09T04:12:53.221Z,99623.24
2019-03-09T04:15:23.768Z,99623.42
2019-03-09T04:17:54.301Z,99637.83
2019-03-09T04:20:24.662Z,99629.11
2019-03-09T04:22:55.120Z,99639.34
2019-03-09T04:25:25.666Z,99635.03
2019-03-09T04:27:58.147Z,99634.39
2019-03-09T04:30:28.639Z,99631.77
2019-03-09T04:32:59.041Z,99646.72
2019-03-09T04:35:29.535Z,99644.49
2019-03-09T04:38:01.727Z,99657.51
2019-03-09T04:40:32.181Z,99652.17
2019-03-09T04:43:02.648Z,99650.70
2019-03-09T04:45:33.106Z,99654.62
2019-03-09T04:48:03.570Z,99661.02
2019-03-09T04:50:34.119Z,99662.34
2019-03-09T04:53:12.548Z,99651.07
2019-03-09T04:55:44.613Z,99658.91
2019-03-09T04:58:15.136Z,99665.23
2019-03-09T05:00:45.604Z,99671.56
2019-03-09T05:03:16.302Z,99677.71
2019-03-09T05:05:52.306Z,99669.27
2019-03-09T05:08:28.706Z,99667.43
2019-03-09T05:11:04.276Z,99667.66
2019-03-09T05:13:37.747Z,99662.48
2019-03-09T05:16:08.773Z,99650.23
2019-03-09T05:18:44.520Z,99658.78
2019-03-09T05:21:23.376Z,99677.19
2019-03-09T05:24:00.977Z,99682.98
2019-03-09T05:26:33.896Z,99678.66
2019-03-09T05:29:09.246Z,99685.04
2019-03-09T05:31:41.488Z,99693.59
2019-03-09T05:34:12.113Z,99685.80
2019-03-09T05:36:42.641Z,99677.90
2019-03-09T05:39:13.184Z,99674.21
2019-03-09T05:41:45.391Z,99686.55
2019-03-09T05:44:15.922Z,99693.73
2019-03-09T05:47:02.865Z,99686.71
2019-03-09T05:49:36.712Z,99683.42
2019-03-09T05:52:22.458Z,99687.84
2019-03-09T05:54:52.938Z,99686.78
2019-03-09T05:57:23.609Z,99689.52
2019-03-09T05:59:54.853Z,99679.12
2019-03-09T06:02:27.107Z,99684.81
2019-03-09T06:04:57.512Z,99692.47
2019-03-09T06:07:33.490Z,99683.55
2019-03-09T06:10:04.974Z,99677.77
2019-03-09T06:12:37.281Z,99670.63
2019-03-09T06:15:07.713Z,99677.69
2019-03-09T06:17:39.671Z,99691.94
2019-03-09T06:20:11.855Z,99689.76
2019-03-09T06:22:47.822Z,99695.19
2019-03-09T06:25:19.888Z,99704.59
2019-03-09T06:27:53.185Z,99706.73
2019-03-09T06:30:25.188Z,99715.40
2019-03-09T06:33:17.369Z,99724.59
2019-03-09T06:35:56.538Z,99706.36
2019-03-09T06:38:45.247Z,99714.11
2019-03-09T06:41:27.990Z,99696.89
2019-03-09T06:43:58.444Z,99688.59
2019-03-09T06:46:30.377Z,99682.20
2019-03-09T06:49:02.419Z,99684.77
2019-03-09T06:51:35.130Z,99679.98
2019-03-09T06:54:05.692Z,99683.16
2019-03-09T06:56:36.117Z,99688.80
2019-03-09T06:59:08.157Z,99698.15
2019-03-09T07:01:38.673Z,99700.52
2019-03-09T07:04:09.108Z,99720.23
2019-03-09T07:06:39.562Z,99716.97
2019-03-09T07:09:10.020Z,99712.26
2019-03-09T07:11:40.471Z,99710.97
2019-03-09T07:14:47.092Z,99703.83
2019-03-09T07:17:19.180Z,99704.80
2019-03-09T07:19:49.682Z,99707.14
2019-03-09T07:22:20.143Z,99697.27
2019-03-09T07:24:54.229Z,99700.61
2019-03-09T07:27:24.714Z,99702.45
2019-03-09T07:29:55.278Z,99699.30
2019-03-09T09:41:51.298Z,99653.61
2019-03-09T09:44:27.105Z,99650.03
2019-03-09T09:47:01.400Z,99644.84
2019-03-09T09:49:32.038Z,99641.00
2019-03-09T09:52:18.729Z,99640.79
2019-03-09T13:49:39.355Z,99496.47
2019-03-09T14:15:54.554Z,99457.92
2019-03-09T15:12:37.184Z,99442.30
2019-03-09T15:15:14.310Z,99437.47
2019-03-09T15:17:44.910Z,99440.30
2019-03-09T15:20:34.816Z,99434.09
2019-03-09T15:23:05.921Z,99429.10
2019-03-09T15:25:37.888Z,99419.28
2019-03-09T15:28:08.591Z,99417.52
2019-03-09T15:30:39.185Z,99417.06
2019-03-09T15:33:12.764Z,99413.99
2019-03-09T15:35:43.331Z,99412.03
2019-03-09T15:38:44.580Z,99414.41
2019-03-09T15:41:02.363Z,99413.34
2019-03-09T16:32:10.905Z,99387.34
2019-03-09T17:20:03.003Z,99381.94
2019-03-09T17:38:18.749Z,99345.70
2019-03-09T17:50:03.906Z,99353.95
2019-03-09T17:55:41.065Z,99352.55
2019-03-09T18:07:29.750Z,99353.14
2019-03-09T18:14:06.526Z,99344.97
2019-03-09T18:35:52.081Z,99333.89
2019-03-09T18:38:36.385Z,99331.60
2019-03-09T18:41:08.576Z,99330.43
2019-03-09T18:43:45.317Z,99330.92
2019-03-09T18:46:22.138Z,99333.09
2019-03-09T18:48:58.721Z,99334.25
2019-03-09T18:51:41.829Z,99325.81
2019-03-09T18:57:05.953Z,99319.83
2019-03-09T18:59:37.404Z,99319.02
2019-03-09T19:02:11.253Z,99313.91
2019-03-09T19:04:45.202Z,99311.42
2019-03-09T19:07:17.106Z,99307.64
2019-03-09T19:09:52.188Z,99302.17
2019-03-09T19:12:26.687Z,99300.16
2019-03-09T19:15:25.113Z,99296.80
2019-03-09T19:18:11.454Z,99303.82
2019-03-09T19:20:48.510Z,99296.80
2019-03-09T19:26:12.316Z,99299.09
2019-03-09T19:28:42.778Z,99289.28
2019-03-09T19:31:19.332Z,99278.03
2019-03-09T19:33:59.422Z,99284.34
2019-03-09T19:36:37.592Z,99278.88
2019-03-09T19:39:09.897Z,99278.23
2019-03-09T19:41:40.493Z,99279.07
2019-03-09T19:44:12.321Z,99275.96
2019-03-09T19:53:02.298Z,99272.98
2019-03-09T19:55:34.431Z,99256.25
2019-03-09T19:58:09.285Z,99252.59
2019-03-09T20:00:42.461Z,99253.59
2019-03-09T20:06:17.835Z,99242.32
2019-03-09T20:08:51.073Z,99250.61
2019-03-09T20:11:23.491Z,99246.47
2019-03-09T20:13:57.790Z,99244.95
2019-03-09T20:16:29.711Z,99240.96
2019-03-09T20:19:01.110Z,99235.95
2019-03-09T20:21:36.215Z,99236.67
2019-03-09T20:24:11.410Z,99237.30
2019-03-09T20:29:31.970Z,99231.02
2019-03-09T20:32:02.360Z,99228.85
2019-03-09T20:34:35.810Z,99221.58
2019-03-09T20:37:14.999Z,99218.41
2019-03-09T20:39:48.047Z,99215.70
2019-03-09T20:42:22.105Z,99217.48
2019-03-09T20:44:54.527Z,99208.40
2019-03-09T20:47:29.664Z,99195.43
2019-03-09T20:50:00.085Z,99190.61
2019-03-09T20:52:34.539Z,99189.97
2019-03-09T20:55:06.300Z,99191.81
2019-03-09T20:57:42.878Z,99185.83
2019-03-09T21:00:16.054Z,99188.20
2019-03-09T21:02:47.562Z,99191.34
2019-03-09T21:05:19.728Z,99177.56
2019-03-09T21:07:50.692Z,99173.86
2019-03-09T21:10:23.071Z,99172.85
2019-03-09T21:13:14.911Z,99163.41
2019-03-09T21:15:48.628Z,99166.86
2019-03-09T21:18:20.720Z,99153.61
2019-03-09T21:20:51.083Z,99145.14
2019-03-09T21:23:23.103Z,99137.05
2019-03-09T21:25:56.462Z,99122.63
2019-03-09T21:28:26.884Z,99114.25
2019-03-09T21:30:57.524Z,99114.45
2019-03-09T21:33:30.399Z,99111.80
2019-03-09T21:36:03.603Z,99125.00
2019-03-09T21:38:36.136Z,99126.33
2019-03-09T21:41:07.449Z,99126.64
2019-03-09T21:43:37.832Z,99116.48
2019-03-09T21:46:08.281Z,99121.09
2019-03-09T21:48:40.484Z,99118.34
2019-03-09T21:51:12.778Z,99118.02
2019-03-09T21:56:33.396Z,99110.87
2019-03-09T21:59:06.914Z,99097.79
2019-03-09T22:01:38.972Z,99097.52
2019-03-09T22:04:10.593Z,99092.70
2019-03-09T22:06:41.004Z,99095.94
2019-03-09T22:09:11.430Z,99095.42
2019-03-09T22:11:41.832Z,99091.97
2019-03-09T22:14:12.243Z,99092.34
2019-03-09T22:16:42.705Z,99095.14
2019-03-09T22:19:13.847Z,99089.80
2019-03-09T22:21:47.400Z,99089.05
2019-03-09T22:24:22.336Z,99094.14
2019-03-09T22:27:03.191Z,99078.58
2019-03-09T22:29:37.358Z,99073.11
2019-03-09T22:32:10.630Z,99077.20
2019-03-09T22:34:41.259Z,99072.07
2019-03-09T22:37:13.229Z,99070.09
2019-03-09T22:39:43.653Z,99065.76
2019-03-09T22:42:14.076Z,99062.59
2019-03-09T22:44:49.874Z,99058.47
2019-03-09T22:47:21.443Z,99052.70
2019-03-09T22:49:54.967Z,99055.23
2019-03-09T22:52:27.039Z,99053.25
2019-03-09T22:55:01.109Z,99050.93
2019-03-09T22:57:37.516Z,99055.37
2019-03-09T23:00:27.019Z,99053.09
2019-03-09T23:05:57.712Z,99050.61
2019-03-09T23:08:30.192Z,99045.22
2019-03-09T23:14:18.636Z,99038.30
2019-03-09T23:16:52.276Z,99034.34
2019-03-09T23:19:22.729Z,99033.34
2019-03-09T23:22:01.372Z,99033.53
2019-03-09T23:24:33.276Z,99031.33
2019-03-09T23:27:06.085Z,99031.49
2019-03-09T23:29:38.806Z,99034.76
2019-03-09T23:32:09.312Z,99032.30
2019-03-09T23:34:39.732Z,99032.63
2019-03-09T23:37:11.135Z,99026.68
2019-03-09T23:39:43.169Z,99028.20
2019-03-09T23:42:16.969Z,99032.14
2019-03-09T23:47:31.476Z,99014.09
2019-03-09T23:50:07.443Z,99011.25
2019-03-09T23:52:37.986Z,99010.86
2019-03-09T23:55:08.724Z,99004.23
2019-03-09T23:57:44.341Z,99002.47
